<?xml version="1.0" encoding="UTF-8" standalone="no" ?>
<gpx xmlns="http://www.topografix.com/GPX/1/1" xmlns:xsi="http://www.w3.org/2001/XMLSchema-instance" xsi:schemaLocation="http://www.topografix.com/GPX/1/1 http://www.topografix.com/GPX/1/1/gpx.xsd" version="1.1" creator="VisuGPX - https://www.visugpx.com">
  <metadata>
    <name>Marche ADEPS Sars LA Bruyère  10 Km 01/05/2026</name>
    <desc><![CDATA[Marche ADEPS Sars LA Bruyère  10 Km 01/05/2025]]></desc>
  </metadata>
  <trk>
    <name><![CDATA[Marche ADEPS Sars LA Bruyère  10 Km 01/05/2024]]></name>
    <trkseg>
      <trkpt lat="50.37156" lon="3.87735">
        <ele>138.811763</ele>
        <time>2024-04-28T15:50:49.743Z</time>
      </trkpt>
      <trkpt lat="50.37168" lon="3.87775">
        <ele>138.811763</ele>
        <time>2024-04-28T15:51:18.495Z</time>
      </trkpt>
      <trkpt lat="50.37179" lon="3.87813">
        <ele>138.811763</ele>
        <time>2024-04-28T15:51:45.554Z</time>
      </trkpt>
      <trkpt lat="50.37186" lon="3.87826">
        <ele>138.811763</ele>
        <time>2024-04-28T15:51:56.750Z</time>
      </trkpt>
      <trkpt lat="50.37189" lon="3.87818">
        <ele>138.811763</ele>
        <time>2024-04-28T15:52:02.654Z</time>
      </trkpt>
      <trkpt lat="50.37238" lon="3.87632">
        <ele>139.152361</ele>
        <time>2024-04-28T15:54:12.194Z</time>
      </trkpt>
      <trkpt lat="50.37246" lon="3.876">
        <ele>139.219903</ele>
        <time>2024-04-28T15:54:34.444Z</time>
      </trkpt>
      <trkpt lat="50.37254" lon="3.87575">
        <ele>139.275336</ele>
        <time>2024-04-28T15:54:52.594Z</time>
      </trkpt>
      <trkpt lat="50.37271" lon="3.87507">
        <ele>139.417264</ele>
        <time>2024-04-28T15:55:39.654Z</time>
      </trkpt>
      <trkpt lat="50.37274" lon="3.87499">
        <ele>139.434387</ele>
        <time>2024-04-28T15:55:45.503Z</time>
      </trkpt>
      <trkpt lat="50.37279" lon="3.87482">
        <ele>139.470564</ele>
        <time>2024-04-28T15:55:57.758Z</time>
      </trkpt>
      <trkpt lat="50.37268" lon="3.8747">
        <ele>139.510544</ele>
        <time>2024-04-28T15:56:11.224Z</time>
      </trkpt>
      <trkpt lat="50.37222" lon="3.87422">
        <ele>139.673698</ele>
        <time>2024-04-28T15:57:06.189Z</time>
      </trkpt>
      <trkpt lat="50.37217" lon="3.87416">
        <ele>139.69412</ele>
        <time>2024-04-28T15:57:13.065Z</time>
      </trkpt>
      <trkpt lat="50.37141" lon="3.87341">
        <ele>140.008752</ele>
        <time>2024-04-28T15:58:43.438Z</time>
      </trkpt>
      <trkpt lat="50.37104" lon="3.87293">
        <ele>140.281037</ele>
        <time>2024-04-28T15:59:33.431Z</time>
      </trkpt>
      <trkpt lat="50.3705" lon="3.87207">
        <ele>140.711688</ele>
        <time>2024-04-28T16:00:52.111Z</time>
      </trkpt>
      <trkpt lat="50.37008" lon="3.87137">
        <ele>140.942099</ele>
        <time>2024-04-28T16:01:54.664Z</time>
      </trkpt>
      <trkpt lat="50.36988" lon="3.8711">
        <ele>140.972776</ele>
        <time>2024-04-28T16:02:21.816Z</time>
      </trkpt>
      <trkpt lat="50.36969" lon="3.87093">
        <ele>140.997015</ele>
        <time>2024-04-28T16:02:43.200Z</time>
      </trkpt>
      <trkpt lat="50.36963" lon="3.87092">
        <ele>141.004389</ele>
        <time>2024-04-28T16:02:49.681Z</time>
      </trkpt>
      <trkpt lat="50.36943" lon="3.8694">
        <ele>141.117521</ele>
        <time>2024-04-28T16:04:28.664Z</time>
      </trkpt>
      <trkpt lat="50.36913" lon="3.86697">
        <ele>140.573091</ele>
        <time>2024-04-28T16:07:08.124Z</time>
      </trkpt>
      <trkpt lat="50.36901" lon="3.86603">
        <ele>140.623522</ele>
        <time>2024-04-28T16:08:10.003Z</time>
      </trkpt>
      <trkpt lat="50.36876" lon="3.86444">
        <ele>140.986655</ele>
        <time>2024-04-28T16:09:55.842Z</time>
      </trkpt>
      <trkpt lat="50.36875" lon="3.8644">
        <ele>140.995336</ele>
        <time>2024-04-28T16:09:58.376Z</time>
      </trkpt>
      <trkpt lat="50.36863" lon="3.86313">
        <ele>141.610406</ele>
        <time>2024-04-28T16:11:23.119Z</time>
      </trkpt>
      <trkpt lat="50.36858" lon="3.86258">
        <ele>141.984476</ele>
        <time>2024-04-28T16:12:00.220Z</time>
      </trkpt>
      <trkpt lat="50.36856" lon="3.86232">
        <ele>142.158202</ele>
        <time>2024-04-28T16:12:17.476Z</time>
      </trkpt>
      <trkpt lat="50.36853" lon="3.86169">
        <ele>142.587778</ele>
        <time>2024-04-28T16:13:00.008Z</time>
      </trkpt>
      <trkpt lat="50.36853" lon="3.86155">
        <ele>142.680628</ele>
        <time>2024-04-28T16:13:09.111Z</time>
      </trkpt>
      <trkpt lat="50.36852" lon="3.86096">
        <ele>143.035592</ele>
        <time>2024-04-28T16:13:47.999Z</time>
      </trkpt>
      <trkpt lat="50.36897" lon="3.86085">
        <ele>143.204518</ele>
        <time>2024-04-28T16:14:35.330Z</time>
      </trkpt>
      <trkpt lat="50.36908" lon="3.8608">
        <ele>143.24428</ele>
        <time>2024-04-28T16:14:46.410Z</time>
      </trkpt>
      <trkpt lat="50.36918" lon="3.86069">
        <ele>143.290089</ele>
        <time>2024-04-28T16:14:59.088Z</time>
      </trkpt>
      <trkpt lat="50.36933" lon="3.8604">
        <ele>143.376746</ele>
        <time>2024-04-28T16:15:23.054Z</time>
      </trkpt>
      <trkpt lat="50.36947" lon="3.85989">
        <ele>143.506518</ele>
        <time>2024-04-28T16:15:58.673Z</time>
      </trkpt>
      <trkpt lat="50.36952" lon="3.85979">
        <ele>143.536882</ele>
        <time>2024-04-28T16:16:06.906Z</time>
      </trkpt>
      <trkpt lat="50.3696" lon="3.85976">
        <ele>143.564697</ele>
        <time>2024-04-28T16:16:14.556Z</time>
      </trkpt>
      <trkpt lat="50.36987" lon="3.85992">
        <ele>143.670137</ele>
        <time>2024-04-28T16:16:43.372Z</time>
      </trkpt>
      <trkpt lat="50.36999" lon="3.85995">
        <ele>143.579617</ele>
        <time>2024-04-28T16:16:56.236Z</time>
      </trkpt>
      <trkpt lat="50.37026" lon="3.85992">
        <ele>143.367124</ele>
        <time>2024-04-28T16:17:23.723Z</time>
      </trkpt>
      <trkpt lat="50.37037" lon="3.85996">
        <ele>143.280788</ele>
        <time>2024-04-28T16:17:34.831Z</time>
      </trkpt>
      <trkpt lat="50.3708" lon="3.86026">
        <ele>142.912131</ele>
        <time>2024-04-28T16:18:22.557Z</time>
      </trkpt>
      <trkpt lat="50.37111" lon="3.86053">
        <ele>142.637535</ele>
        <time>2024-04-28T16:18:58.385Z</time>
      </trkpt>
      <trkpt lat="50.37142" lon="3.86058">
        <ele>142.396236</ele>
        <time>2024-04-28T16:19:29.938Z</time>
      </trkpt>
      <trkpt lat="50.37214" lon="3.86038">
        <ele>141.293922</ele>
        <time>2024-04-28T16:20:45.546Z</time>
      </trkpt>
      <trkpt lat="50.3727" lon="3.86017">
        <ele>140.295978</ele>
        <time>2024-04-28T16:21:45.858Z</time>
      </trkpt>
      <trkpt lat="50.37287" lon="3.86007">
        <ele>139.983379</ele>
        <time>2024-04-28T16:22:04.758Z</time>
      </trkpt>
      <trkpt lat="50.37328" lon="3.85954">
        <ele>139.098563</ele>
        <time>2024-04-28T16:23:00.026Z</time>
      </trkpt>
      <trkpt lat="50.37356" lon="3.85929">
        <ele>138.700868</ele>
        <time>2024-04-28T16:23:33.056Z</time>
      </trkpt>
      <trkpt lat="50.37459" lon="3.85883">
        <ele>137.358667</ele>
        <time>2024-04-28T16:25:22.989Z</time>
      </trkpt>
      <trkpt lat="50.37542" lon="3.8585">
        <ele>136.808131</ele>
        <time>2024-04-28T16:26:50.176Z</time>
      </trkpt>
      <trkpt lat="50.37631" lon="3.85795">
        <ele>136.599763</ele>
        <time>2024-04-28T16:28:26.346Z</time>
      </trkpt>
      <trkpt lat="50.37678" lon="3.85738">
        <ele>136.791785</ele>
        <time>2024-04-28T16:29:26.880Z</time>
      </trkpt>
      <trkpt lat="50.37682" lon="3.85733">
        <ele>136.835834</ele>
        <time>2024-04-28T16:29:31.363Z</time>
      </trkpt>
      <trkpt lat="50.37426" lon="3.85121">
        <ele>141.250006</ele>
        <time>2024-04-28T16:37:36.626Z</time>
      </trkpt>
      <trkpt lat="50.37422" lon="3.85112">
        <ele>141.310947</ele>
        <time>2024-04-28T16:37:44.109Z</time>
      </trkpt>
      <trkpt lat="50.37204" lon="3.85276">
        <ele>141.179599</ele>
        <time>2024-04-28T16:41:46.362Z</time>
      </trkpt>
      <trkpt lat="50.37209" lon="3.85287">
        <ele>141.070586</ele>
        <time>2024-04-28T16:41:54.904Z</time>
      </trkpt>
      <trkpt lat="50.37204" lon="3.85276">
        <ele>140.961574</ele>
        <time>2024-04-28T16:42:03.396Z</time>
      </trkpt>
      <trkpt lat="50.3699" lon="3.84793">
        <ele>136.445011</ele>
        <time>2024-04-28T16:48:32.268Z</time>
      </trkpt>
      <trkpt lat="50.36975" lon="3.84777">
        <ele>136.534401</ele>
        <time>2024-04-28T16:48:51.152Z</time>
      </trkpt>
      <trkpt lat="50.36574" lon="3.84642">
        <ele>139.473892</ele>
        <time>2024-04-28T16:55:56.047Z</time>
      </trkpt>
      <trkpt lat="50.36571" lon="3.84649">
        <ele>139.543174</ele>
        <time>2024-04-28T16:56:01.889Z</time>
      </trkpt>
      <trkpt lat="50.36379" lon="3.84456">
        <ele>143.068726</ele>
        <time>2024-04-28T17:00:04.062Z</time>
      </trkpt>
      <trkpt lat="50.36286" lon="3.84451">
        <ele>143.981501</ele>
        <time>2024-04-28T17:01:41.419Z</time>
      </trkpt>
      <trkpt lat="50.36184" lon="3.84474">
        <ele>144.795016</ele>
        <time>2024-04-28T17:03:26.922Z</time>
      </trkpt>
      <trkpt lat="50.36078" lon="3.84488">
        <ele>144.757753</ele>
        <time>2024-04-28T17:05:13.922Z</time>
      </trkpt>
      <trkpt lat="50.36073" lon="3.84483">
        <ele>144.75549</ele>
        <time>2024-04-28T17:05:20.505Z</time>
      </trkpt>
      <trkpt lat="50.36009" lon="3.84387">
        <ele>144.516685</ele>
        <time>2024-04-28T17:06:50.498Z</time>
      </trkpt>
      <trkpt lat="50.36004" lon="3.84395">
        <ele>144.478499</ele>
        <time>2024-04-28T17:06:57.527Z</time>
      </trkpt>
      <trkpt lat="50.35964" lon="3.84456">
        <ele>144.167126</ele>
        <time>2024-04-28T17:07:54.573Z</time>
      </trkpt>
      <trkpt lat="50.35959" lon="3.84469">
        <ele>144.112857</ele>
        <time>2024-04-28T17:08:04.443Z</time>
      </trkpt>
      <trkpt lat="50.35951" lon="3.8451">
        <ele>143.960496</ele>
        <time>2024-04-28T17:08:32.222Z</time>
      </trkpt>
      <trkpt lat="50.35937" lon="3.84532">
        <ele>143.85068</ele>
        <time>2024-04-28T17:08:52.235Z</time>
      </trkpt>
      <trkpt lat="50.35928" lon="3.8454">
        <ele>143.79599</ele>
        <time>2024-04-28T17:09:02.148Z</time>
      </trkpt>
      <trkpt lat="50.35912" lon="3.84541">
        <ele>143.744889</ele>
        <time>2024-04-28T17:09:17.852Z</time>
      </trkpt>
      <trkpt lat="50.35903" lon="3.84538">
        <ele>143.749541</ele>
        <time>2024-04-28T17:09:27.895Z</time>
      </trkpt>
      <trkpt lat="50.35847" lon="3.8448">
        <ele>143.780721</ele>
        <time>2024-04-28T17:10:35.150Z</time>
      </trkpt>
      <trkpt lat="50.35829" lon="3.84451">
        <ele>143.792729</ele>
        <time>2024-04-28T17:11:01.362Z</time>
      </trkpt>
      <trkpt lat="50.35774" lon="3.8438">
        <ele>143.825909</ele>
        <time>2024-04-28T17:12:13.598Z</time>
      </trkpt>
      <trkpt lat="50.35758" lon="3.84356">
        <ele>143.784024</ele>
        <time>2024-04-28T17:12:36.024Z</time>
      </trkpt>
      <trkpt lat="50.35753" lon="3.8437">
        <ele>143.763944</ele>
        <time>2024-04-28T17:12:46.809Z</time>
      </trkpt>
      <trkpt lat="50.35724" lon="3.84446">
        <ele>143.657035</ele>
        <time>2024-04-28T17:13:43.727Z</time>
      </trkpt>
      <trkpt lat="50.35702" lon="3.84525">
        <ele>143.552727</ele>
        <time>2024-04-28T17:14:38.960Z</time>
      </trkpt>
      <trkpt lat="50.35702" lon="3.84534">
        <ele>143.542091</ele>
        <time>2024-04-28T17:14:44.627Z</time>
      </trkpt>
      <trkpt lat="50.35695" lon="3.84543">
        <ele>143.525393</ele>
        <time>2024-04-28T17:14:53.624Z</time>
      </trkpt>
      <trkpt lat="50.35652" lon="3.84525">
        <ele>143.39115</ele>
        <time>2024-04-28T17:15:39.004Z</time>
      </trkpt>
      <trkpt lat="50.35607" lon="3.84513">
        <ele>143.213011</ele>
        <time>2024-04-28T17:16:24.875Z</time>
      </trkpt>
      <trkpt lat="50.35595" lon="3.84507">
        <ele>143.165356</ele>
        <time>2024-04-28T17:16:37.160Z</time>
      </trkpt>
      <trkpt lat="50.3558" lon="3.84488">
        <ele>143.089273</ele>
        <time>2024-04-28T17:16:56.726Z</time>
      </trkpt>
      <trkpt lat="50.35573" lon="3.84489">
        <ele>143.062467</ele>
        <time>2024-04-28T17:17:03.671Z</time>
      </trkpt>
      <trkpt lat="50.35553" lon="3.8448">
        <ele>142.979563</ele>
        <time>2024-04-28T17:17:25.101Z</time>
      </trkpt>
      <trkpt lat="50.35504" lon="3.8444">
        <ele>142.762932</ele>
        <time>2024-04-28T17:18:20.177Z</time>
      </trkpt>
      <trkpt lat="50.35469" lon="3.84416">
        <ele>142.595758</ele>
        <time>2024-04-28T17:18:59.177Z</time>
      </trkpt>
      <trkpt lat="50.35467" lon="3.84429">
        <ele>142.559783</ele>
        <time>2024-04-28T17:19:07.568Z</time>
      </trkpt>
      <trkpt lat="50.35456" lon="3.84495">
        <ele>142.371341</ele>
        <time>2024-04-28T17:19:51.884Z</time>
      </trkpt>
      <trkpt lat="50.35376" lon="3.84925">
        <ele>141.462741</ele>
        <time>2024-04-28T17:24:40.096Z</time>
      </trkpt>
      <trkpt lat="50.35347" lon="3.8508">
        <ele>141.617656</ele>
        <time>2024-04-28T17:26:23.512Z</time>
      </trkpt>
      <trkpt lat="50.35319" lon="3.85157">
        <ele>141.702556</ele>
        <time>2024-04-28T17:27:20.670Z</time>
      </trkpt>
      <trkpt lat="50.35218" lon="3.85362">
        <ele>142.47744</ele>
        <time>2024-04-28T17:30:09.681Z</time>
      </trkpt>
      <trkpt lat="50.35169" lon="3.85433">
        <ele>142.636758</ele>
        <time>2024-04-28T17:31:17.117Z</time>
      </trkpt>
      <trkpt lat="50.34914" lon="3.85888">
        <ele>142.906312</ele>
        <time>2024-04-28T17:37:44.495Z</time>
      </trkpt>
      <trkpt lat="50.3492" lon="3.85895">
        <ele>142.901849</ele>
        <time>2024-04-28T17:37:51.228Z</time>
      </trkpt>
      <trkpt lat="50.35352" lon="3.86469">
        <ele>142.406726</ele>
        <time>2024-04-28T17:47:19.011Z</time>
      </trkpt>
      <trkpt lat="50.35366" lon="3.86474">
        <ele>142.381856</ele>
        <time>2024-04-28T17:47:33.587Z</time>
      </trkpt>
      <trkpt lat="50.35453" lon="3.8647">
        <ele>142.134232</ele>
        <time>2024-04-28T17:49:01.270Z</time>
      </trkpt>
      <trkpt lat="50.356" lon="3.86393">
        <ele>141.428926</ele>
        <time>2024-04-28T17:51:38.404Z</time>
      </trkpt>
      <trkpt lat="50.35607" lon="3.8639">
        <ele>141.401511</ele>
        <time>2024-04-28T17:51:45.422Z</time>
      </trkpt>
      <trkpt lat="50.35621" lon="3.86395">
        <ele>141.348054</ele>
        <time>2024-04-28T17:51:59.265Z</time>
      </trkpt>
      <trkpt lat="50.35691" lon="3.86513">
        <ele>140.944534</ele>
        <time>2024-04-28T17:53:43.337Z</time>
      </trkpt>
      <trkpt lat="50.35702" lon="3.86523">
        <ele>140.895088</ele>
        <time>2024-04-28T17:53:56.105Z</time>
      </trkpt>
      <trkpt lat="50.35714" lon="3.86535">
        <ele>140.839469</ele>
        <time>2024-04-28T17:54:10.391Z</time>
      </trkpt>
      <trkpt lat="50.35717" lon="3.86551">
        <ele>140.798853</ele>
        <time>2024-04-28T17:54:20.927Z</time>
      </trkpt>
      <trkpt lat="50.35718" lon="3.86552">
        <ele>140.793773</ele>
        <time>2024-04-28T17:54:22.274Z</time>
      </trkpt>
      <trkpt lat="50.35717" lon="3.86551">
        <ele>140.788693</ele>
        <time>2024-04-28T17:54:23.617Z</time>
      </trkpt>
      <trkpt lat="50.35714" lon="3.86535">
        <ele>140.762901</ele>
        <time>2024-04-28T17:54:34.110Z</time>
      </trkpt>
      <trkpt lat="50.35943" lon="3.86753">
        <ele>140.734606</ele>
        <time>2024-04-28T17:59:02.963Z</time>
      </trkpt>
      <trkpt lat="50.3611" lon="3.86911">
        <ele>139.923331</ele>
        <time>2024-04-28T18:02:19.626Z</time>
      </trkpt>
      <trkpt lat="50.36106" lon="3.86918">
        <ele>139.882419</ele>
        <time>2024-04-28T18:02:25.580Z</time>
      </trkpt>
      <trkpt lat="50.3611" lon="3.86911">
        <ele>139.841506</ele>
        <time>2024-04-28T18:02:31.458Z</time>
      </trkpt>
      <trkpt lat="50.36223" lon="3.86672">
        <ele>138.15868</ele>
        <time>2024-04-28T18:05:47.429Z</time>
      </trkpt>
      <trkpt lat="50.36231" lon="3.86684">
        <ele>138.04719</ele>
        <time>2024-04-28T18:05:59.081Z</time>
      </trkpt>
      <trkpt lat="50.36223" lon="3.86672">
        <ele>137.935699</ele>
        <time>2024-04-28T18:06:10.680Z</time>
      </trkpt>
      <trkpt lat="50.36252" lon="3.86611">
        <ele>137.748209</ele>
        <time>2024-04-28T18:06:58.701Z</time>
      </trkpt>
      <trkpt lat="50.3626" lon="3.86592">
        <ele>137.807368</ele>
        <time>2024-04-28T18:07:13.394Z</time>
      </trkpt>
      <trkpt lat="50.3628" lon="3.86558">
        <ele>137.930497</ele>
        <time>2024-04-28T18:07:44.134Z</time>
      </trkpt>
      <trkpt lat="50.36323" lon="3.8651">
        <ele>138.144984</ele>
        <time>2024-04-28T18:08:38.248Z</time>
      </trkpt>
      <trkpt lat="50.36338" lon="3.86489">
        <ele>138.227807</ele>
        <time>2024-04-28T18:08:59.311Z</time>
      </trkpt>
      <trkpt lat="50.36394" lon="3.86536">
        <ele>138.222287</ele>
        <time>2024-04-28T18:10:03.273Z</time>
      </trkpt>
      <trkpt lat="50.36406" lon="3.86534">
        <ele>138.117555</ele>
        <time>2024-04-28T18:10:15.449Z</time>
      </trkpt>
      <trkpt lat="50.3646" lon="3.86548">
        <ele>137.644941</ele>
        <time>2024-04-28T18:11:10.937Z</time>
      </trkpt>
      <trkpt lat="50.36472" lon="3.86563">
        <ele>137.513804</ele>
        <time>2024-04-28T18:11:26.414Z</time>
      </trkpt>
      <trkpt lat="50.3657" lon="3.86683">
        <ele>136.438827</ele>
        <time>2024-04-28T18:13:35.530Z</time>
      </trkpt>
      <trkpt lat="50.36622" lon="3.86714">
        <ele>135.959305</ele>
        <time>2024-04-28T18:14:32.617Z</time>
      </trkpt>
      <trkpt lat="50.36656" lon="3.86769">
        <ele>135.532864</ele>
        <time>2024-04-28T18:15:22.546Z</time>
      </trkpt>
      <trkpt lat="50.36735" lon="3.87041">
        <ele>136.451244</ele>
        <time>2024-04-28T18:18:38.817Z</time>
      </trkpt>
      <trkpt lat="50.36748" lon="3.87089">
        <ele>136.626355</ele>
        <time>2024-04-28T18:19:13.143Z</time>
      </trkpt>
      <trkpt lat="50.36776" lon="3.87175">
        <ele>136.830981</ele>
        <time>2024-04-28T18:20:16.420Z</time>
      </trkpt>
      <trkpt lat="50.36781" lon="3.87178">
        <ele>136.846091</ele>
        <time>2024-04-28T18:20:21.136Z</time>
      </trkpt>
      <trkpt lat="50.36792" lon="3.87218">
        <ele>136.939381</ele>
        <time>2024-04-28T18:20:49.792Z</time>
      </trkpt>
      <trkpt lat="50.36794" lon="3.87226">
        <ele>136.957013</ele>
        <time>2024-04-28T18:20:55.228Z</time>
      </trkpt>
      <trkpt lat="50.36796" lon="3.8723">
        <ele>136.96763</ele>
        <time>2024-04-28T18:20:58.497Z</time>
      </trkpt>
      <trkpt lat="50.36897" lon="3.87409">
        <ele>136.688189</ele>
        <time>2024-04-28T18:23:31.863Z</time>
      </trkpt>
      <trkpt lat="50.36989" lon="3.87563">
        <ele>136.011433</ele>
        <time>2024-04-28T18:25:48.862Z</time>
      </trkpt>
      <trkpt lat="50.37058" lon="3.87707">
        <ele>135.470874</ele>
        <time>2024-04-28T18:27:45.196Z</time>
      </trkpt>
      <trkpt lat="50.37091" lon="3.87774">
        <ele>135.384201</ele>
        <time>2024-04-28T18:28:40.716Z</time>
      </trkpt>
      <trkpt lat="50.3711" lon="3.87807">
        <ele>135.384201</ele>
        <time>2024-04-28T18:29:09.502Z</time>
      </trkpt>
      <trkpt lat="50.37177" lon="3.87852">
        <ele>135.384201</ele>
        <time>2024-04-28T18:30:24.661Z</time>
      </trkpt>
      <trkpt lat="50.37185" lon="3.8783">
        <ele>135.384201</ele>
        <time>2024-04-28T18:30:41.843Z</time>
      </trkpt>
    </trkseg>
  </trk>
</gpx>